Meath Environmental Platform

Observations for Trim Market St

Time AQI Temp °C Hum % Pres Pa CO μg/m³ H₂S μg/m³ NO μg/m³ NO₂ μg/m³ O₃ μg/m³ SO₂ μg/m³ PM1 μg/m³ PM2.5 μg/m³ PM10 μg/m³
Monday 13 July 2026
10:43 1 32.5 35 66,048 0 0 0 0 32.81 0 1.43 4.7 6.69
10:42 1 32.4 35 66,027 0 0 0 0 38.96 0 0.71 4.17 4.58
10:41 1 32.3 35 65,999 0 0 0 0 25.87 0 1.43 4.17 4.58
10:40 1 32.3 35 65,991 0 0 0 0.85 35.09 0 2.85 5.77 8.36
10:39 1 32.2 35 65,977 0 0 0 0 26.32 0 1.43 4.7 5.86
10:37 1 32.1 35 65,941 0 0 0 0 32.36 0 2.14 4.69 5.16
10:31 1 31.7 36 65,923 0 0 0 0 33.58 0 0.71 3.61 3.97
10:28 1 31.6 36 65,894 0 0 0 0 29.94 0 1.43 4.68 5.15
10:27 1 31.6 36 65,892 0 0 0 0 38.99 0 1.43 4.14 5.03
10:21 1 31.6 36 65,880 0 0 0 0 26.84 0 2.14 4.66 5.13
10:18 1 31.5 36 65,872 0 0 0 0 29.62 0 1.43 4.11 4.52
10:17 1 31.5 36 65,805 0 0 0 0 33.65 0 1.43 4.65 5.04
10:16 1 31.4 36 65,805 0 0 0 0 36.61 0 1.43 5.18 5.69
10:15 1 31.4 36 65,835 0 0 0 0 27.58 0 2.14 4.64 5.04
10:14 1 31.4 36 65,817 0 0 0 0 40.09 0 2.14 4.1 5.05
10:13 1 31.3 36 65,821 0 0 0 0 38.86 0 0.71 4.11 4.21
10:12 1 31.3 36 65,833 0 0 0 0 26.93 0 0.71 3.58 3.94
10:11 1 31.2 36 65,847 0 0 0 0 35.88 0 0.71 4.12 4.53
10:10 1 31.2 36 65,841 0 0 0 0 26.15 0 1.43 4.12 4.21
10:09 1 31.2 36 65,827 0 0 0 0 33.33 0 1.43 4.65 5.87